Overview Statistics Trail Chart Weather Telemetry Raw packets
 

This is the latest recevied weather packets stored in our database for station/object KV9E. If no packets are shown the sender has not sent any weather packets the latest 10 day(s).

<< 35 36 37 38 39 40 41 >>
Time Temp. Humidity Pressure Rain* Wind** Luminosity Snow
1788375851 32.78° C 56% 1019.2 hPa 0 mm - 529 W/m² -
1788375547 32.22° C 57% 1019.3 hPa 0 mm - 564 W/m² -
1788375243 31.11° C 60% 1019.4 hPa 0 mm - 139 W/m² -
1788374937 31.67° C 62% 1019.4 hPa 0 mm - 169 W/m² -
1788374633 31.11° C 62% 1019.4 hPa 0 mm - 585 W/m² -
1788374328 30.56° C 63% 1019.6 hPa 0 mm - 601 W/m² -
1788374025 30° C 67% 1019.4 hPa 0 mm - 151 W/m² -
1788373720 30° C 67% 1019.9 hPa 0 mm - 151 W/m² -
1788373416 30.56° C 63% 1019.6 hPa 0 mm - 118 W/m² -
1788373112 30.56° C 64% 1019.7 hPa 0 mm - 147 W/m² -
1788372807 32.78° C 57% 1020 hPa 0 mm - 150 W/m² -
1788372501 33.33° C 54% 1019.6 hPa 0 mm - 318 W/m² -
1788372197 33.33° C 55% 1019.9 hPa 0 mm - 649 W/m² -
1788371893 32.22° C 55% 1019.8 hPa 0 mm - 667 W/m² -
1788371588 32.22° C 55% 1019.9 hPa 0 mm - 654 W/m² -
1788371283 32.22° C 55% 1019.8 hPa 0 mm - 656 W/m² -
1788370979 31.67° C 57% 1019.9 hPa 0 mm - 655 W/m² -
1788370675 31.11° C 57% 1020.2 hPa 0 mm - 648 W/m² -
1788370369 31.67° C 56% 1020.2 hPa 0 mm - 623 W/m² -
1788370064 31.11° C 58% 1020 hPa 0 mm - 613 W/m² -
1788369764 31.67° C 59% 1020.2 hPa 0 mm - 614 W/m² -
1788369459 31.67° C 61% 1020.3 hPa 0 mm - 603 W/m² -
1788369153 31.67° C 59% 1020.4 hPa 0 mm - 608 W/m² -
1788368849 31.11° C 58% 1020.6 hPa 0 mm - 586 W/m² -
1788368545 31.11° C 60% 1020.6 hPa 0 mm - 255 W/m² -

* Rain latest hour (hover to see other rain measurements)
** Current wind speed in m/s (hover to see current wind gust speed)